sensor_id;sensor_type;location;lat;lon;timestamp;P1;durP1;ratioP1;P2;durP2;ratioP2
4766;SDS011;2397;53.576;9.746;2022-11-18T00:01:03;20.30;;;12.23;;
4766;SDS011;2397;53.576;9.746;2022-11-18T00:03:31;19.27;;;12.37;;
4766;SDS011;2397;53.576;9.746;2022-11-18T00:05:58;19.70;;;11.10;;
4766;SDS011;2397;53.576;9.746;2022-11-18T00:08:24;19.63;;;11.93;;
4766;SDS011;2397;53.576;9.746;2022-11-18T00:10:51;19.53;;;12.10;;
4766;SDS011;2397;53.576;9.746;2022-11-18T00:13:19;17.80;;;11.33;;
4766;SDS011;2397;53.576;9.746;2022-11-18T00:16:08;20.30;;;11.43;;
4766;SDS011;2397;53.576;9.746;2022-11-18T00:18:36;20.47;;;12.03;;
4766;SDS011;2397;53.576;9.746;2022-11-18T00:21:10;18.90;;;11.97;;
4766;SDS011;2397;53.576;9.746;2022-11-18T00:23:37;20.30;;;12.00;;
4766;SDS011;2397;53.576;9.746;2022-11-18T00:26:08;21.70;;;11.83;;
4766;SDS011;2397;53.576;9.746;2022-11-18T00:28:37;20.23;;;11.83;;
4766;SDS011;2397;53.576;9.746;2022-11-18T00:31:08;17.63;;;11.50;;
4766;SDS011;2397;53.576;9.746;2022-11-18T00:33:37;20.70;;;11.43;;
4766;SDS011;2397;53.576;9.746;2022-11-18T00:36:04;19.90;;;12.07;;
4766;SDS011;2397;53.576;9.746;2022-11-18T00:38:32;20.87;;;12.00;;
4766;SDS011;2397;53.576;9.746;2022-11-18T00:41:16;20.50;;;11.67;;
4766;SDS011;2397;53.576;9.746;2022-11-18T00:43:42;19.97;;;11.70;;
4766;SDS011;2397;53.576;9.746;2022-11-18T00:46:09;18.47;;;12.30;;
4766;SDS011;2397;53.576;9.746;2022-11-18T00:48:37;20.30;;;10.93;;
4766;SDS011;2397;53.576;9.746;2022-11-18T00:51:09;18.60;;;11.53;;
4766;SDS011;2397;53.576;9.746;2022-11-18T00:53:38;23.90;;;11.77;;
4766;SDS011;2397;53.576;9.746;2022-11-18T00:56:05;18.70;;;10.73;;
4766;SDS011;2397;53.576;9.746;2022-11-18T00:58:32;16.73;;;10.57;;
4766;SDS011;2397;53.576;9.746;2022-11-18T01:00:59;19.27;;;11.40;;
4766;SDS011;2397;53.576;9.746;2022-11-18T01:03:26;18.27;;;10.63;;
4766;SDS011;2397;53.576;9.746;2022-11-18T01:05:53;22.67;;;12.23;;
4766;SDS011;2397;53.576;9.746;2022-11-18T01:08:20;17.87;;;11.30;;
4766;SDS011;2397;53.576;9.746;2022-11-18T01:10:47;18.20;;;11.20;;
4766;SDS011;2397;53.576;9.746;2022-11-18T01:13:15;18.90;;;11.10;;
4766;SDS011;2397;53.576;9.746;2022-11-18T01:15:47;21.27;;;12.10;;
4766;SDS011;2397;53.576;9.746;2022-11-18T01:18:22;19.30;;;11.13;;
4766;SDS011;2397;53.576;9.746;2022-11-18T01:20:50;18.73;;;11.17;;
4766;SDS011;2397;53.576;9.746;2022-11-18T01:23:17;19.50;;;12.03;;
4766;SDS011;2397;53.576;9.746;2022-11-18T01:25:46;19.80;;;11.53;;
4766;SDS011;2397;53.576;9.746;2022-11-18T01:28:14;18.57;;;10.13;;
4766;SDS011;2397;53.576;9.746;2022-11-18T01:30:48;22.57;;;12.53;;
4766;SDS011;2397;53.576;9.746;2022-11-18T01:33:15;20.63;;;12.30;;
4766;SDS011;2397;53.576;9.746;2022-11-18T01:35:42;19.80;;;12.17;;
4766;SDS011;2397;53.576;9.746;2022-11-18T01:38:09;18.03;;;11.30;;
4766;SDS011;2397;53.576;9.746;2022-11-18T01:40:38;25.30;;;13.30;;
4766;SDS011;2397;53.576;9.746;2022-11-18T01:43:07;18.97;;;11.93;;
4766;SDS011;2397;53.576;9.746;2022-11-18T01:45:41;24.27;;;13.77;;
4766;SDS011;2397;53.576;9.746;2022-11-18T01:48:13;20.73;;;12.50;;
4766;SDS011;2397;53.576;9.746;2022-11-18T01:50:53;21.87;;;13.50;;
4766;SDS011;2397;53.576;9.746;2022-11-18T01:53:26;20.43;;;12.03;;
4766;SDS011;2397;53.576;9.746;2022-11-18T01:55:57;21.60;;;11.77;;
4766;SDS011;2397;53.576;9.746;2022-11-18T01:58:29;20.70;;;12.70;;
4766;SDS011;2397;53.576;9.746;2022-11-18T02:01:01;21.37;;;12.17;;
4766;SDS011;2397;53.576;9.746;2022-11-18T02:03:29;24.57;;;13.30;;
4766;SDS011;2397;53.576;9.746;2022-11-18T02:05:56;20.00;;;11.33;;
4766;SDS011;2397;53.576;9.746;2022-11-18T02:08:25;19.23;;;12.13;;
4766;SDS011;2397;53.576;9.746;2022-11-18T02:10:53;21.60;;;12.17;;
4766;SDS011;2397;53.576;9.746;2022-11-18T02:13:19;18.67;;;11.43;;
4766;SDS011;2397;53.576;9.746;2022-11-18T02:15:52;26.40;;;13.90;;
4766;SDS011;2397;53.576;9.746;2022-11-18T02:24:35;22.13;;;12.80;;
4766;SDS011;2397;53.576;9.746;2022-11-18T02:29:57;25.57;;;15.50;;
4766;SDS011;2397;53.576;9.746;2022-11-18T02:32:27;29.37;;;14.90;;
4766;SDS011;2397;53.576;9.746;2022-11-18T02:40:37;29.57;;;15.77;;
4766;SDS011;2397;53.576;9.746;2022-11-18T02:43:23;29.93;;;17.23;;
4766;SDS011;2397;53.576;9.746;2022-11-18T02:45:57;25.80;;;15.67;;
4766;SDS011;2397;53.576;9.746;2022-11-18T02:48:28;26.13;;;14.93;;
4766;SDS011;2397;53.576;9.746;2022-11-18T02:50:58;27.67;;;16.57;;
4766;SDS011;2397;53.576;9.746;2022-11-18T02:53:29;30.40;;;16.90;;
4766;SDS011;2397;53.576;9.746;2022-11-18T02:55:59;29.37;;;17.73;;
4766;SDS011;2397;53.576;9.746;2022-11-18T02:58:27;30.23;;;17.10;;
4766;SDS011;2397;53.576;9.746;2022-11-18T03:00:54;29.47;;;16.20;;
4766;SDS011;2397;53.576;9.746;2022-11-18T03:03:24;29.97;;;17.00;;
4766;SDS011;2397;53.576;9.746;2022-11-18T03:08:49;29.83;;;16.80;;
4766;SDS011;2397;53.576;9.746;2022-11-18T03:11:21;32.07;;;17.60;;
4766;SDS011;2397;53.576;9.746;2022-11-18T03:14:07;32.03;;;17.50;;
4766;SDS011;2397;53.576;9.746;2022-11-18T03:16:45;29.20;;;16.70;;
4766;SDS011;2397;53.576;9.746;2022-11-18T03:19:28;28.33;;;16.50;;
4766;SDS011;2397;53.576;9.746;2022-11-18T03:25:01;26.50;;;17.07;;
4766;SDS011;2397;53.576;9.746;2022-11-18T03:27:34;34.20;;;17.20;;
4766;SDS011;2397;53.576;9.746;2022-11-18T03:30:05;30.30;;;17.60;;
4766;SDS011;2397;53.576;9.746;2022-11-18T03:32:36;29.50;;;17.70;;
4766;SDS011;2397;53.576;9.746;2022-11-18T03:35:07;25.53;;;15.00;;
4766;SDS011;2397;53.576;9.746;2022-11-18T03:37:37;30.00;;;18.57;;
4766;SDS011;2397;53.576;9.746;2022-11-18T03:40:16;29.50;;;18.20;;
4766;SDS011;2397;53.576;9.746;2022-11-18T03:42:50;32.90;;;17.10;;
4766;SDS011;2397;53.576;9.746;2022-11-18T03:45:23;28.30;;;16.93;;
4766;SDS011;2397;53.576;9.746;2022-11-18T03:48:08;31.03;;;17.47;;
4766;SDS011;2397;53.576;9.746;2022-11-18T03:50:45;30.20;;;17.00;;
4766;SDS011;2397;53.576;9.746;2022-11-18T03:53:16;31.57;;;17.23;;
4766;SDS011;2397;53.576;9.746;2022-11-18T03:55:46;31.77;;;17.37;;
4766;SDS011;2397;53.576;9.746;2022-11-18T03:58:28;28.80;;;16.13;;
4766;SDS011;2397;53.576;9.746;2022-11-18T04:01:00;33.60;;;17.97;;
4766;SDS011;2397;53.576;9.746;2022-11-18T04:03:33;27.50;;;16.03;;
4766;SDS011;2397;53.576;9.746;2022-11-18T04:06:04;26.23;;;16.47;;
4766;SDS011;2397;53.576;9.746;2022-11-18T04:08:47;33.10;;;18.47;;
4766;SDS011;2397;53.576;9.746;2022-11-18T04:11:21;26.60;;;16.43;;
4766;SDS011;2397;53.576;9.746;2022-11-18T04:14:11;30.33;;;16.83;;
4766;SDS011;2397;53.576;9.746;2022-11-18T04:16:39;26.87;;;15.37;;
4766;SDS011;2397;53.576;9.746;2022-11-18T04:19:07;27.50;;;15.43;;
4766;SDS011;2397;53.576;9.746;2022-11-18T04:21:33;28.60;;;17.23;;
4766;SDS011;2397;53.576;9.746;2022-11-18T04:24:00;29.43;;;16.37;;
4766;SDS011;2397;53.576;9.746;2022-11-18T04:26:26;27.83;;;16.70;;
4766;SDS011;2397;53.576;9.746;2022-11-18T04:28:53;27.53;;;15.90;;
4766;SDS011;2397;53.576;9.746;2022-11-18T04:31:19;28.97;;;14.80;;
4766;SDS011;2397;53.576;9.746;2022-11-18T04:33:45;32.30;;;17.60;;
4766;SDS011;2397;53.576;9.746;2022-11-18T04:36:12;25.57;;;16.17;;
4766;SDS011;2397;53.576;9.746;2022-11-18T04:38:38;25.93;;;16.20;;
4766;SDS011;2397;53.576;9.746;2022-11-18T04:41:05;28.70;;;16.00;;
4766;SDS011;2397;53.576;9.746;2022-11-18T04:43:31;25.73;;;16.37;;
4766;SDS011;2397;53.576;9.746;2022-11-18T04:45:57;28.40;;;17.50;;
4766;SDS011;2397;53.576;9.746;2022-11-18T04:48:24;30.17;;;17.00;;
4766;SDS011;2397;53.576;9.746;2022-11-18T04:50:50;26.73;;;16.90;;
4766;SDS011;2397;53.576;9.746;2022-11-18T04:53:16;30.30;;;17.43;;
4766;SDS011;2397;53.576;9.746;2022-11-18T04:55:43;27.30;;;16.43;;
4766;SDS011;2397;53.576;9.746;2022-11-18T04:58:09;25.67;;;15.13;;
4766;SDS011;2397;53.576;9.746;2022-11-18T05:00:36;24.00;;;15.10;;
4766;SDS011;2397;53.576;9.746;2022-11-18T05:03:03;26.10;;;17.10;;
4766;SDS011;2397;53.576;9.746;2022-11-18T05:05:29;26.67;;;16.20;;
4766;SDS011;2397;53.576;9.746;2022-11-18T05:07:55;31.23;;;17.60;;
4766;SDS011;2397;53.576;9.746;2022-11-18T05:10:22;24.77;;;15.93;;
4766;SDS011;2397;53.576;9.746;2022-11-18T05:12:48;29.57;;;16.80;;
4766;SDS011;2397;53.576;9.746;2022-11-18T05:15:16;31.30;;;17.63;;
4766;SDS011;2397;53.576;9.746;2022-11-18T05:17:43;30.63;;;16.27;;
4766;SDS011;2397;53.576;9.746;2022-11-18T05:20:09;26.50;;;15.47;;
4766;SDS011;2397;53.576;9.746;2022-11-18T05:22:36;32.80;;;17.90;;
4766;SDS011;2397;53.576;9.746;2022-11-18T05:25:03;25.20;;;15.40;;
4766;SDS011;2397;53.576;9.746;2022-11-18T05:27:29;29.23;;;17.10;;
4766;SDS011;2397;53.576;9.746;2022-11-18T05:29:56;30.00;;;16.93;;
4766;SDS011;2397;53.576;9.746;2022-11-18T05:32:22;26.43;;;16.10;;
4766;SDS011;2397;53.576;9.746;2022-11-18T05:34:49;27.90;;;16.90;;
4766;SDS011;2397;53.576;9.746;2022-11-18T05:37:15;30.07;;;17.90;;
4766;SDS011;2397;53.576;9.746;2022-11-18T05:39:42;30.97;;;17.37;;
4766;SDS011;2397;53.576;9.746;2022-11-18T05:42:08;32.70;;;18.10;;
4766;SDS011;2397;53.576;9.746;2022-11-18T05:44:54;33.10;;;19.30;;
4766;SDS011;2397;53.576;9.746;2022-11-18T05:47:24;34.57;;;18.87;;
4766;SDS011;2397;53.576;9.746;2022-11-18T05:49:50;31.87;;;17.57;;
4766;SDS011;2397;53.576;9.746;2022-11-18T05:52:17;32.20;;;17.97;;
4766;SDS011;2397;53.576;9.746;2022-11-18T05:54:45;30.47;;;18.07;;
4766;SDS011;2397;53.576;9.746;2022-11-18T05:57:14;28.13;;;17.37;;
4766;SDS011;2397;53.576;9.746;2022-11-18T05:59:41;32.50;;;19.20;;
4766;SDS011;2397;53.576;9.746;2022-11-18T06:02:11;33.20;;;19.07;;
4766;SDS011;2397;53.576;9.746;2022-11-18T06:04:43;29.27;;;19.07;;
4766;SDS011;2397;53.576;9.746;2022-11-18T06:10:09;30.43;;;19.20;;
4766;SDS011;2397;53.576;9.746;2022-11-18T06:12:39;34.17;;;19.70;;
4766;SDS011;2397;53.576;9.746;2022-11-18T06:15:17;32.70;;;19.80;;
4766;SDS011;2397;53.576;9.746;2022-11-18T06:17:49;31.90;;;19.30;;
4766;SDS011;2397;53.576;9.746;2022-11-18T06:20:23;30.20;;;18.30;;
4766;SDS011;2397;53.576;9.746;2022-11-18T06:22:52;32.17;;;19.37;;
4766;SDS011;2397;53.576;9.746;2022-11-18T06:25:21;32.53;;;19.07;;
4766;SDS011;2397;53.576;9.746;2022-11-18T06:27:48;34.30;;;19.93;;
4766;SDS011;2397;53.576;9.746;2022-11-18T06:30:16;32.30;;;19.20;;
4766;SDS011;2397;53.576;9.746;2022-11-18T06:32:43;34.37;;;20.50;;
4766;SDS011;2397;53.576;9.746;2022-11-18T06:35:09;34.77;;;19.33;;
4766;SDS011;2397;53.576;9.746;2022-11-18T06:37:36;33.20;;;18.27;;
4766;SDS011;2397;53.576;9.746;2022-11-18T06:40:02;37.10;;;19.30;;
4766;SDS011;2397;53.576;9.746;2022-11-18T06:42:29;36.20;;;20.43;;
4766;SDS011;2397;53.576;9.746;2022-11-18T06:45:14;31.20;;;18.40;;
4766;SDS011;2397;53.576;9.746;2022-11-18T06:47:40;34.07;;;18.83;;
4766;SDS011;2397;53.576;9.746;2022-11-18T06:50:07;34.20;;;19.13;;
4766;SDS011;2397;53.576;9.746;2022-11-18T06:52:34;31.30;;;17.50;;
4766;SDS011;2397;53.576;9.746;2022-11-18T06:55:00;34.03;;;20.17;;
4766;SDS011;2397;53.576;9.746;2022-11-18T06:57:26;34.10;;;20.50;;
4766;SDS011;2397;53.576;9.746;2022-11-18T06:59:53;37.73;;;18.70;;
4766;SDS011;2397;53.576;9.746;2022-11-18T07:02:27;32.40;;;18.13;;
4766;SDS011;2397;53.576;9.746;2022-11-18T07:04:53;35.13;;;19.90;;
4766;SDS011;2397;53.576;9.746;2022-11-18T07:07:20;36.17;;;21.80;;
4766;SDS011;2397;53.576;9.746;2022-11-18T07:09:46;32.70;;;18.60;;
4766;SDS011;2397;53.576;9.746;2022-11-18T07:12:13;35.90;;;20.43;;
4766;SDS011;2397;53.576;9.746;2022-11-18T07:14:39;35.47;;;20.40;;
4766;SDS011;2397;53.576;9.746;2022-11-18T07:17:05;37.50;;;20.70;;
4766;SDS011;2397;53.576;9.746;2022-11-18T07:19:32;37.40;;;20.23;;
4766;SDS011;2397;53.576;9.746;2022-11-18T07:22:01;32.90;;;18.90;;
4766;SDS011;2397;53.576;9.746;2022-11-18T07:24:27;42.80;;;20.13;;
4766;SDS011;2397;53.576;9.746;2022-11-18T07:26:54;36.97;;;20.50;;
4766;SDS011;2397;53.576;9.746;2022-11-18T07:29:20;37.90;;;20.33;;
4766;SDS011;2397;53.576;9.746;2022-11-18T07:31:47;33.43;;;18.70;;
4766;SDS011;2397;53.576;9.746;2022-11-18T07:34:13;35.50;;;18.70;;
4766;SDS011;2397;53.576;9.746;2022-11-18T07:36:39;37.03;;;20.90;;
4766;SDS011;2397;53.576;9.746;2022-11-18T07:39:06;33.17;;;18.80;;
4766;SDS011;2397;53.576;9.746;2022-11-18T07:41:32;31.80;;;19.67;;
4766;SDS011;2397;53.576;9.746;2022-11-18T07:44:00;34.27;;;19.90;;
4766;SDS011;2397;53.576;9.746;2022-11-18T07:46:32;33.50;;;20.20;;
4766;SDS011;2397;53.576;9.746;2022-11-18T07:49:00;30.20;;;18.37;;
4766;SDS011;2397;53.576;9.746;2022-11-18T07:51:29;34.80;;;18.90;;
4766;SDS011;2397;53.576;9.746;2022-11-18T07:53:59;30.17;;;17.90;;
4766;SDS011;2397;53.576;9.746;2022-11-18T07:56:26;36.70;;;20.90;;
4766;SDS011;2397;53.576;9.746;2022-11-18T07:58:54;38.73;;;20.83;;
4766;SDS011;2397;53.576;9.746;2022-11-18T08:01:21;35.47;;;19.90;;
4766;SDS011;2397;53.576;9.746;2022-11-18T08:03:49;32.63;;;19.20;;
4766;SDS011;2397;53.576;9.746;2022-11-18T08:06:17;32.47;;;19.30;;
4766;SDS011;2397;53.576;9.746;2022-11-18T08:08:44;32.83;;;19.53;;
4766;SDS011;2397;53.576;9.746;2022-11-18T08:11:15;30.67;;;17.70;;
4766;SDS011;2397;53.576;9.746;2022-11-18T08:13:47;35.17;;;18.90;;
4766;SDS011;2397;53.576;9.746;2022-11-18T08:16:15;33.57;;;18.93;;
4766;SDS011;2397;53.576;9.746;2022-11-18T08:18:43;32.17;;;17.67;;
4766;SDS011;2397;53.576;9.746;2022-11-18T08:21:11;28.90;;;18.13;;
4766;SDS011;2397;53.576;9.746;2022-11-18T08:23:38;30.63;;;18.13;;
4766;SDS011;2397;53.576;9.746;2022-11-18T08:26:09;30.70;;;18.30;;
4766;SDS011;2397;53.576;9.746;2022-11-18T08:28:39;26.17;;;16.50;;
4766;SDS011;2397;53.576;9.746;2022-11-18T08:31:20;32.20;;;17.33;;
4766;SDS011;2397;53.576;9.746;2022-11-18T08:34:08;30.00;;;18.17;;
4766;SDS011;2397;53.576;9.746;2022-11-18T08:36:35;27.20;;;15.33;;
4766;SDS011;2397;53.576;9.746;2022-11-18T08:39:04;28.50;;;16.80;;
4766;SDS011;2397;53.576;9.746;2022-11-18T08:41:34;32.67;;;15.33;;
4766;SDS011;2397;53.576;9.746;2022-11-18T08:44:01;26.20;;;15.20;;
4766;SDS011;2397;53.576;9.746;2022-11-18T08:46:28;30.90;;;16.70;;
4766;SDS011;2397;53.576;9.746;2022-11-18T08:48:55;28.73;;;15.27;;
4766;SDS011;2397;53.576;9.746;2022-11-18T08:51:22;22.43;;;14.70;;
4766;SDS011;2397;53.576;9.746;2022-11-18T08:53:49;30.23;;;17.23;;
4766;SDS011;2397;53.576;9.746;2022-11-18T08:56:16;25.50;;;16.23;;
4766;SDS011;2397;53.576;9.746;2022-11-18T08:58:44;25.30;;;15.10;;
4766;SDS011;2397;53.576;9.746;2022-11-18T09:01:11;22.50;;;13.60;;
4766;SDS011;2397;53.576;9.746;2022-11-18T09:03:38;25.70;;;15.57;;
4766;SDS011;2397;53.576;9.746;2022-11-18T09:06:08;24.60;;;15.30;;
4766;SDS011;2397;53.576;9.746;2022-11-18T09:08:36;26.23;;;15.73;;
4766;SDS011;2397;53.576;9.746;2022-11-18T09:11:06;24.53;;;15.90;;
4766;SDS011;2397;53.576;9.746;2022-11-18T09:13:34;23.40;;;15.00;;
4766;SDS011;2397;53.576;9.746;2022-11-18T09:16:21;25.57;;;14.60;;
4766;SDS011;2397;53.576;9.746;2022-11-18T09:18:53;23.73;;;14.27;;
4766;SDS011;2397;53.576;9.746;2022-11-18T09:21:21;23.97;;;13.83;;
4766;SDS011;2397;53.576;9.746;2022-11-18T09:23:48;22.53;;;14.53;;
4766;SDS011;2397;53.576;9.746;2022-11-18T09:26:15;22.10;;;12.70;;
4766;SDS011;2397;53.576;9.746;2022-11-18T09:28:44;20.37;;;15.03;;
4766;SDS011;2397;53.576;9.746;2022-11-18T09:31:11;24.67;;;15.37;;
4766;SDS011;2397;53.576;9.746;2022-11-18T09:33:39;25.03;;;15.03;;
4766;SDS011;2397;53.576;9.746;2022-11-18T09:36:10;21.43;;;14.13;;
4766;SDS011;2397;53.576;9.746;2022-11-18T09:38:48;23.23;;;15.37;;
4766;SDS011;2397;53.576;9.746;2022-11-18T09:49:34;24.23;;;14.50;;
4766;SDS011;2397;53.576;9.746;2022-11-18T09:52:04;19.13;;;12.90;;
4766;SDS011;2397;53.576;9.746;2022-11-18T09:54:36;22.50;;;13.10;;
4766;SDS011;2397;53.576;9.746;2022-11-18T09:57:03;20.20;;;13.30;;
4766;SDS011;2397;53.576;9.746;2022-11-18T09:59:38;21.70;;;13.53;;
4766;SDS011;2397;53.576;9.746;2022-11-18T10:05:00;21.33;;;13.63;;
4766;SDS011;2397;53.576;9.746;2022-11-18T10:07:51;16.37;;;11.30;;
4766;SDS011;2397;53.576;9.746;2022-11-18T10:13:14;20.80;;;12.00;;
4766;SDS011;2397;53.576;9.746;2022-11-18T10:15:59;18.20;;;12.83;;
4766;SDS011;2397;53.576;9.746;2022-11-18T10:18:39;17.67;;;12.20;;
4766;SDS011;2397;53.576;9.746;2022-11-18T10:24:45;18.03;;;12.37;;
4766;SDS011;2397;53.576;9.746;2022-11-18T10:27:16;16.90;;;10.67;;
4766;SDS011;2397;53.576;9.746;2022-11-18T10:29:43;16.63;;;12.03;;
4766;SDS011;2397;53.576;9.746;2022-11-18T10:32:14;19.83;;;11.50;;
4766;SDS011;2397;53.576;9.746;2022-11-18T10:34:52;15.03;;;10.90;;
4766;SDS011;2397;53.576;9.746;2022-11-18T10:37:21;16.63;;;10.90;;
4766;SDS011;2397;53.576;9.746;2022-11-18T10:40:25;16.93;;;11.77;;
4766;SDS011;2397;53.576;9.746;2022-11-18T10:42:53;11.00;;;9.00;;
4766;SDS011;2397;53.576;9.746;2022-11-18T10:47:55;14.87;;;9.50;;
4766;SDS011;2397;53.576;9.746;2022-11-18T10:50:33;14.23;;;10.10;;
4766;SDS011;2397;53.576;9.746;2022-11-18T10:53:02;11.83;;;9.33;;
4766;SDS011;2397;53.576;9.746;2022-11-18T10:55:30;14.67;;;9.57;;
4766;SDS011;2397;53.576;9.746;2022-11-18T10:58:02;13.90;;;9.47;;
4766;SDS011;2397;53.576;9.746;2022-11-18T11:00:36;12.70;;;10.03;;
4766;SDS011;2397;53.576;9.746;2022-11-18T11:03:22;13.27;;;10.20;;
4766;SDS011;2397;53.576;9.746;2022-11-18T11:06:11;14.30;;;9.60;;
4766;SDS011;2397;53.576;9.746;2022-11-18T11:08:49;18.03;;;9.73;;
4766;SDS011;2397;53.576;9.746;2022-11-18T11:11:30;12.13;;;8.80;;
4766;SDS011;2397;53.576;9.746;2022-11-18T11:14:15;12.03;;;9.07;;
4766;SDS011;2397;53.576;9.746;2022-11-18T11:22:29;8.73;;;6.80;;
4766;SDS011;2397;53.576;9.746;2022-11-18T11:24:55;10.40;;;6.70;;
4766;SDS011;2397;53.576;9.746;2022-11-18T11:27:45;10.50;;;8.10;;
4766;SDS011;2397;53.576;9.746;2022-11-18T11:30:40;8.97;;;7.30;;
4766;SDS011;2397;53.576;9.746;2022-11-18T11:33:42;10.30;;;7.80;;
4766;SDS011;2397;53.576;9.746;2022-11-18T11:44:47;7.90;;;6.00;;
4766;SDS011;2397;53.576;9.746;2022-11-18T11:56:25;8.70;;;6.50;;
4766;SDS011;2397;53.576;9.746;2022-11-18T11:59:18;8.07;;;6.47;;
4766;SDS011;2397;53.576;9.746;2022-11-18T12:05:07;7.67;;;6.43;;
4766;SDS011;2397;53.576;9.746;2022-11-18T12:07:50;12.53;;;6.50;;
4766;SDS011;2397;53.576;9.746;2022-11-18T12:10:26;12.43;;;7.37;;
4766;SDS011;2397;53.576;9.746;2022-11-18T12:13:05;10.67;;;6.67;;
4766;SDS011;2397;53.576;9.746;2022-11-18T12:18:41;9.20;;;5.70;;
4766;SDS011;2397;53.576;9.746;2022-11-18T12:26:46;14.20;;;6.70;;
4766;SDS011;2397;53.576;9.746;2022-11-18T12:31:48;11.63;;;8.50;;
4766;SDS011;2397;53.576;9.746;2022-11-18T12:34:39;10.80;;;6.63;;
4766;SDS011;2397;53.576;9.746;2022-11-18T12:39:58;9.90;;;7.57;;
4766;SDS011;2397;53.576;9.746;2022-11-18T12:42:32;13.97;;;6.00;;
4766;SDS011;2397;53.576;9.746;2022-11-18T12:50:57;9.07;;;6.10;;
4766;SDS011;2397;53.576;9.746;2022-11-18T12:53:28;9.23;;;6.43;;
4766;SDS011;2397;53.576;9.746;2022-11-18T12:55:58;18.53;;;7.20;;
4766;SDS011;2397;53.576;9.746;2022-11-18T12:58:25;10.87;;;6.90;;
4766;SDS011;2397;53.576;9.746;2022-11-18T13:01:09;8.53;;;5.73;;
4766;SDS011;2397;53.576;9.746;2022-11-18T13:03:38;9.67;;;6.77;;
4766;SDS011;2397;53.576;9.746;2022-11-18T13:06:06;7.60;;;6.00;;
4766;SDS011;2397;53.576;9.746;2022-11-18T13:08:42;8.47;;;6.43;;
4766;SDS011;2397;53.576;9.746;2022-11-18T13:11:15;11.67;;;6.23;;
4766;SDS011;2397;53.576;9.746;2022-11-18T13:14:02;8.00;;;5.70;;
4766;SDS011;2397;53.576;9.746;2022-11-18T13:16:54;9.13;;;6.00;;
4766;SDS011;2397;53.576;9.746;2022-11-18T13:19:39;6.87;;;5.93;;
4766;SDS011;2397;53.576;9.746;2022-11-18T13:22:12;9.30;;;6.47;;
4766;SDS011;2397;53.576;9.746;2022-11-18T13:25:01;7.53;;;5.60;;
4766;SDS011;2397;53.576;9.746;2022-11-18T13:27:41;7.50;;;5.60;;
4766;SDS011;2397;53.576;9.746;2022-11-18T13:30:14;8.17;;;6.00;;
4766;SDS011;2397;53.576;9.746;2022-11-18T13:32:45;6.17;;;5.10;;
4766;SDS011;2397;53.576;9.746;2022-11-18T13:35:14;8.40;;;5.10;;
4766;SDS011;2397;53.576;9.746;2022-11-18T13:37:48;8.73;;;6.23;;
4766;SDS011;2397;53.576;9.746;2022-11-18T13:40:27;8.33;;;5.87;;
4766;SDS011;2397;53.576;9.746;2022-11-18T13:42:55;10.23;;;6.27;;
4766;SDS011;2397;53.576;9.746;2022-11-18T13:45:25;6.07;;;5.47;;
4766;SDS011;2397;53.576;9.746;2022-11-18T13:48:06;6.40;;;5.60;;
4766;SDS011;2397;53.576;9.746;2022-11-18T13:50:41;6.27;;;4.70;;
4766;SDS011;2397;53.576;9.746;2022-11-18T13:53:25;6.03;;;4.83;;
4766;SDS011;2397;53.576;9.746;2022-11-18T13:56:13;7.30;;;5.20;;
4766;SDS011;2397;53.576;9.746;2022-11-18T13:58:50;6.80;;;5.00;;
4766;SDS011;2397;53.576;9.746;2022-11-18T14:01:36;7.90;;;5.10;;
4766;SDS011;2397;53.576;9.746;2022-11-18T14:04:13;7.73;;;5.40;;
4766;SDS011;2397;53.576;9.746;2022-11-18T14:06:44;5.83;;;5.20;;
4766;SDS011;2397;53.576;9.746;2022-11-18T14:09:24;6.03;;;4.60;;
4766;SDS011;2397;53.576;9.746;2022-11-18T14:14:31;10.20;;;5.10;;
4766;SDS011;2397;53.576;9.746;2022-11-18T14:17:03;5.43;;;4.43;;
4766;SDS011;2397;53.576;9.746;2022-11-18T14:19:39;5.63;;;5.00;;
4766;SDS011;2397;53.576;9.746;2022-11-18T14:22:20;5.33;;;4.30;;
4766;SDS011;2397;53.576;9.746;2022-11-18T14:24:55;5.00;;;4.17;;
4766;SDS011;2397;53.576;9.746;2022-11-18T14:30:22;5.17;;;4.00;;
4766;SDS011;2397;53.576;9.746;2022-11-18T14:33:07;5.10;;;4.60;;
4766;SDS011;2397;53.576;9.746;2022-11-18T14:35:35;16.43;;;4.27;;
4766;SDS011;2397;53.576;9.746;2022-11-18T14:38:23;6.10;;;4.37;;
4766;SDS011;2397;53.576;9.746;2022-11-18T14:41:29;6.87;;;3.93;;
4766;SDS011;2397;53.576;9.746;2022-11-18T14:44:13;5.63;;;3.80;;
4766;SDS011;2397;53.576;9.746;2022-11-18T14:46:41;3.60;;;3.30;;
4766;SDS011;2397;53.576;9.746;2022-11-18T14:49:11;7.13;;;4.40;;
4766;SDS011;2397;53.576;9.746;2022-11-18T14:51:40;5.47;;;3.83;;
4766;SDS011;2397;53.576;9.746;2022-11-18T14:54:10;6.27;;;4.07;;
4766;SDS011;2397;53.576;9.746;2022-11-18T14:56:37;7.23;;;4.00;;
4766;SDS011;2397;53.576;9.746;2022-11-18T14:59:03;8.17;;;5.33;;
4766;SDS011;2397;53.576;9.746;2022-11-18T15:01:30;6.07;;;4.27;;
4766;SDS011;2397;53.576;9.746;2022-11-18T15:03:56;3.60;;;3.30;;
4766;SDS011;2397;53.576;9.746;2022-11-18T15:06:23;6.20;;;5.30;;
4766;SDS011;2397;53.576;9.746;2022-11-18T15:08:50;8.13;;;4.80;;
4766;SDS011;2397;53.576;9.746;2022-11-18T15:11:18;5.83;;;5.00;;
4766;SDS011;2397;53.576;9.746;2022-11-18T15:13:44;8.90;;;4.10;;
4766;SDS011;2397;53.576;9.746;2022-11-18T15:16:18;4.00;;;3.47;;
4766;SDS011;2397;53.576;9.746;2022-11-18T15:18:47;5.20;;;3.97;;
4766;SDS011;2397;53.576;9.746;2022-11-18T15:21:16;5.60;;;4.53;;
4766;SDS011;2397;53.576;9.746;2022-11-18T15:23:43;5.10;;;3.97;;
4766;SDS011;2397;53.576;9.746;2022-11-18T15:26:25;5.13;;;4.63;;
4766;SDS011;2397;53.576;9.746;2022-11-18T15:28:53;4.03;;;3.60;;
4766;SDS011;2397;53.576;9.746;2022-11-18T15:31:21;3.90;;;3.60;;
4766;SDS011;2397;53.576;9.746;2022-11-18T15:33:48;4.17;;;3.77;;
4766;SDS011;2397;53.576;9.746;2022-11-18T15:36:17;3.97;;;3.43;;
4766;SDS011;2397;53.576;9.746;2022-11-18T15:38:45;4.10;;;3.70;;
4766;SDS011;2397;53.576;9.746;2022-11-18T15:41:22;3.90;;;3.43;;
4766;SDS011;2397;53.576;9.746;2022-11-18T15:43:50;5.17;;;3.53;;
4766;SDS011;2397;53.576;9.746;2022-11-18T15:46:19;3.80;;;3.40;;
4766;SDS011;2397;53.576;9.746;2022-11-18T15:48:50;5.07;;;4.10;;
4766;SDS011;2397;53.576;9.746;2022-11-18T15:51:17;4.40;;;3.40;;
4766;SDS011;2397;53.576;9.746;2022-11-18T15:53:44;8.53;;;5.13;;
4766;SDS011;2397;53.576;9.746;2022-11-18T15:58:53;16.90;;;6.90;;
4766;SDS011;2397;53.576;9.746;2022-11-18T16:01:22;12.53;;;6.53;;
4766;SDS011;2397;53.576;9.746;2022-11-18T16:03:53;14.50;;;7.23;;
4766;SDS011;2397;53.576;9.746;2022-11-18T16:06:20;16.00;;;7.07;;
4766;SDS011;2397;53.576;9.746;2022-11-18T16:08:47;16.60;;;8.20;;
4766;SDS011;2397;53.576;9.746;2022-11-18T16:11:14;15.63;;;6.93;;
4766;SDS011;2397;53.576;9.746;2022-11-18T16:14:04;13.53;;;6.40;;
4766;SDS011;2397;53.576;9.746;2022-11-18T16:16:32;11.57;;;6.37;;
4766;SDS011;2397;53.576;9.746;2022-11-18T16:18:59;7.70;;;5.53;;
4766;SDS011;2397;53.576;9.746;2022-11-18T16:21:28;17.63;;;7.70;;
4766;SDS011;2397;53.576;9.746;2022-11-18T16:23:57;9.37;;;5.80;;
4766;SDS011;2397;53.576;9.746;2022-11-18T16:26:25;10.67;;;7.30;;
4766;SDS011;2397;53.576;9.746;2022-11-18T16:28:53;7.73;;;5.90;;
4766;SDS011;2397;53.576;9.746;2022-11-18T16:31:21;8.70;;;5.90;;
4766;SDS011;2397;53.576;9.746;2022-11-18T16:34:07;9.47;;;5.07;;
4766;SDS011;2397;53.576;9.746;2022-11-18T16:36:41;7.53;;;5.33;;
4766;SDS011;2397;53.576;9.746;2022-11-18T16:39:10;7.87;;;5.73;;
4766;SDS011;2397;53.576;9.746;2022-11-18T16:41:39;11.27;;;5.47;;
4766;SDS011;2397;53.576;9.746;2022-11-18T16:44:07;9.23;;;6.60;;
4766;SDS011;2397;53.576;9.746;2022-11-18T16:46:37;5.80;;;5.30;;
4766;SDS011;2397;53.576;9.746;2022-11-18T16:49:05;7.00;;;5.37;;
4766;SDS011;2397;53.576;9.746;2022-11-18T16:51:33;6.60;;;5.80;;
4766;SDS011;2397;53.576;9.746;2022-11-18T16:54:01;8.63;;;6.20;;
4766;SDS011;2397;53.576;9.746;2022-11-18T16:56:30;5.87;;;5.33;;
4766;SDS011;2397;53.576;9.746;2022-11-18T16:58:59;8.97;;;5.20;;